createdAt,value
2018-12-10T00:00:49.872Z,5.23
2018-12-10T00:05:53.093Z,4.77
2018-12-10T00:10:56.320Z,5.43
2018-12-10T00:15:59.526Z,5.00
2018-12-10T00:21:02.728Z,5.50
2018-12-10T00:26:05.926Z,5.17
2018-12-10T00:31:09.143Z,5.13
2018-12-10T00:36:13.045Z,5.13
2018-12-10T00:41:16.269Z,5.07
2018-12-10T00:46:19.439Z,4.77
2018-12-10T00:51:22.633Z,4.37
2018-12-10T00:56:25.873Z,3.70
2018-12-10T01:01:29.077Z,6.63
2018-12-10T01:06:32.261Z,4.47
2018-12-10T01:11:35.451Z,4.47
2018-12-10T01:16:38.681Z,5.20
2018-12-10T01:21:41.870Z,4.50
2018-12-10T01:26:45.245Z,4.40
2018-12-10T01:31:48.437Z,4.87
2018-12-10T01:36:51.664Z,5.00
2018-12-10T01:41:54.921Z,5.20
2018-12-10T01:46:58.125Z,5.43
2018-12-10T01:52:01.499Z,4.60
2018-12-10T01:57:04.726Z,4.27
2018-12-10T02:02:07.963Z,4.93
2018-12-10T02:07:11.410Z,4.50
2018-12-10T02:12:14.620Z,4.23
2018-12-10T02:17:17.814Z,4.00
2018-12-10T02:22:21.250Z,4.33
2018-12-10T02:27:24.456Z,4.40
2018-12-10T02:32:27.661Z,4.50
2018-12-10T02:37:31.005Z,4.43
2018-12-10T02:42:34.235Z,4.93
2018-12-10T02:47:37.494Z,4.17
2018-12-10T02:52:40.809Z,4.30
2018-12-10T02:57:44.348Z,4.10
2018-12-10T03:02:47.569Z,3.90
2018-12-10T03:07:50.815Z,4.67
2018-12-10T03:12:54.027Z,3.47
2018-12-10T03:17:57.273Z,4.33
2018-12-10T03:23:00.498Z,4.37
2018-12-10T03:28:03.758Z,3.93
2018-12-10T03:33:06.942Z,3.70
2018-12-10T03:38:10.168Z,4.97
2018-12-10T03:43:13.734Z,4.13
2018-12-10T03:48:16.968Z,3.20
2018-12-10T03:53:20.192Z,3.47
2018-12-10T03:58:23.386Z,4.03
2018-12-10T04:03:26.578Z,3.50
2018-12-10T04:08:30.023Z,3.20
2018-12-10T04:13:33.260Z,3.33
2018-12-10T04:18:36.434Z,3.83
2018-12-10T04:23:39.639Z,3.90
2018-12-10T04:28:42.847Z,3.40
2018-12-10T04:33:46.072Z,3.37
2018-12-10T04:38:49.287Z,3.57
2018-12-10T04:43:52.513Z,3.03
2018-12-10T04:48:55.886Z,3.27
2018-12-10T04:53:59.122Z,2.70
2018-12-10T04:59:02.413Z,3.17
2018-12-10T05:04:05.663Z,3.23
2018-12-10T05:09:08.906Z,3.00
2018-12-10T05:14:12.466Z,3.23
2018-12-10T05:19:15.705Z,2.93
2018-12-10T05:24:18.953Z,3.13
2018-12-10T05:29:22.390Z,3.10
2018-12-10T05:34:25.586Z,3.00
2018-12-10T05:39:28.904Z,3.27
2018-12-10T05:44:32.092Z,3.00
2018-12-10T05:49:35.377Z,2.90
2018-12-10T05:54:38.570Z,2.80
2018-12-10T05:59:41.802Z,2.70
2018-12-10T06:04:45.035Z,2.53
2018-12-10T06:09:48.240Z,3.07
2018-12-10T06:14:51.528Z,2.63
2018-12-10T06:19:54.710Z,2.63
2018-12-10T06:24:58.068Z,2.60
2018-12-10T06:30:01.330Z,2.77
2018-12-10T06:35:04.800Z,3.47
2018-12-10T06:40:07.991Z,2.93
2018-12-10T06:45:11.522Z,2.83
2018-12-10T06:50:14.971Z,3.13
2018-12-10T06:55:18.182Z,2.50
2018-12-10T07:00:21.492Z,2.70
2018-12-10T07:05:25.842Z,2.63
2018-12-10T07:10:29.340Z,2.43
2018-12-10T07:15:33.540Z,3.00
2018-12-10T07:20:37.199Z,2.93
2018-12-10T07:25:40.658Z,1.93
2018-12-10T07:30:43.925Z,2.30
2018-12-10T07:35:47.643Z,2.50
2018-12-10T07:40:50.874Z,2.73
2018-12-10T07:45:54.183Z,2.80
2018-12-10T07:50:57.477Z,2.67
2018-12-10T07:56:00.760Z,2.20
2018-12-10T08:01:04.153Z,2.10
2018-12-10T08:06:07.468Z,2.30
2018-12-10T08:11:10.829Z,3.13
2018-12-10T08:16:14.078Z,2.47
2018-12-10T08:21:18.352Z,2.40
2018-12-10T08:26:21.573Z,2.90
2018-12-10T08:31:24.791Z,2.70
2018-12-10T08:36:28.045Z,2.70
2018-12-10T08:41:31.384Z,2.23
2018-12-10T08:46:35.048Z,2.20
2018-12-10T08:51:38.268Z,2.30
2018-12-10T08:56:41.536Z,2.50
2018-12-10T09:01:44.803Z,2.30
2018-12-10T09:06:48.332Z,2.17
2018-12-10T09:11:51.638Z,2.40
2018-12-10T09:16:54.864Z,2.40
2018-12-10T09:21:58.444Z,2.10
2018-12-10T09:27:01.926Z,2.33
2018-12-10T09:32:05.573Z,2.20
2018-12-10T09:37:08.790Z,2.33
2018-12-10T09:42:12.095Z,2.40
2018-12-10T09:47:15.717Z,2.40
2018-12-10T09:52:19.084Z,2.13
2018-12-10T09:57:22.353Z,2.53
2018-12-10T10:02:25.738Z,3.37
2018-12-10T10:07:29.400Z,1.90
2018-12-10T10:12:32.617Z,2.20
2018-12-10T10:17:35.925Z,2.20
2018-12-10T10:22:39.197Z,2.23
2018-12-10T10:27:43.020Z,2.20
2018-12-10T10:32:46.310Z,1.70
2018-12-10T10:37:49.887Z,1.90
2018-12-10T10:42:53.168Z,1.77
2018-12-10T10:47:56.427Z,2.00
2018-12-10T10:52:59.691Z,1.60
2018-12-10T10:58:03.079Z,1.40
2018-12-10T11:03:10.525Z,3.20
2018-12-10T11:08:13.764Z,2.00
2018-12-10T11:13:17.223Z,2.13
2018-12-10T11:18:20.546Z,1.70
2018-12-10T11:23:23.816Z,1.60
2018-12-10T11:28:27.329Z,1.70
2018-12-10T11:33:30.580Z,1.50
2018-12-10T11:38:33.902Z,2.07
2018-12-10T11:43:37.161Z,1.70
2018-12-10T11:48:40.513Z,1.33
2018-12-10T11:53:44.308Z,1.73
2018-12-10T11:58:47.560Z,1.60
2018-12-10T12:03:50.820Z,1.30
2018-12-10T12:08:54.117Z,1.73
2018-12-10T12:13:58.189Z,1.50
2018-12-10T12:19:02.336Z,1.80
2018-12-10T12:24:05.876Z,1.57
2018-12-10T12:29:09.466Z,1.00
2018-12-10T12:34:13.279Z,1.33
2018-12-10T12:39:16.720Z,1.50
2018-12-10T12:44:19.899Z,1.40
2018-12-10T12:49:23.255Z,1.23
2018-12-10T12:54:26.553Z,1.60
2018-12-10T12:59:29.810Z,1.67
2018-12-10T13:04:34.465Z,1.73
2018-12-10T13:09:38.938Z,1.47
2018-12-10T13:14:42.443Z,1.70
2018-12-10T13:19:45.632Z,1.23
2018-12-10T13:24:48.832Z,1.53
2018-12-10T13:29:52.449Z,2.20
2018-12-10T13:34:55.970Z,1.50
2018-12-10T13:39:59.475Z,1.60
2018-12-10T13:45:02.937Z,1.47
2018-12-10T13:50:06.275Z,1.40
2018-12-10T13:55:10.211Z,1.10
2018-12-10T14:00:13.503Z,1.50
2018-12-10T14:05:16.977Z,1.53
2018-12-10T14:10:20.177Z,1.50
2018-12-10T14:15:23.538Z,2.40
2018-12-10T14:20:26.943Z,2.20
2018-12-10T14:25:30.184Z,1.97
2018-12-10T14:30:33.831Z,1.50
2018-12-10T14:35:37.472Z,1.83
2018-12-10T14:40:40.949Z,1.73
2018-12-10T14:45:44.222Z,1.40
2018-12-10T14:50:47.549Z,1.40
2018-12-10T14:55:50.955Z,2.03
2018-12-10T15:00:54.245Z,2.07
2018-12-10T15:05:57.531Z,1.40
2018-12-10T15:11:00.909Z,2.47
2018-12-10T15:16:04.214Z,1.97
2018-12-10T15:21:07.806Z,1.60
2018-12-10T15:26:11.334Z,1.40
2018-12-10T15:31:14.676Z,1.50
2018-12-10T15:36:17.975Z,1.73
2018-12-10T15:41:21.373Z,1.93
2018-12-10T15:46:24.734Z,2.00
2018-12-10T15:51:28.040Z,1.90
2018-12-10T15:56:31.256Z,2.10
2018-12-10T16:01:34.482Z,2.00
2018-12-10T16:06:37.768Z,1.97
2018-12-10T16:11:41.263Z,1.87
2018-12-10T16:16:44.630Z,2.13
2018-12-10T16:21:48.018Z,2.50
2018-12-10T16:26:51.381Z,1.73
2018-12-10T16:31:55.237Z,1.70
2018-12-10T16:36:58.492Z,1.60
2018-12-10T16:42:01.829Z,2.13
2018-12-10T16:47:06.119Z,1.60
2018-12-10T16:52:09.358Z,1.83
2018-12-10T16:57:12.720Z,1.47
2018-12-10T17:02:16.151Z,1.70
2018-12-10T17:07:19.392Z,1.90
2018-12-10T17:12:23.037Z,1.67
2018-12-10T17:17:26.471Z,1.77
2018-12-10T17:22:30.093Z,1.70
2018-12-10T17:27:33.361Z,1.80
2018-12-10T17:32:36.690Z,1.60
2018-12-10T17:37:39.974Z,1.83
2018-12-10T17:47:52.896Z,1.57
2018-12-10T17:52:56.238Z,2.30
2018-12-10T17:57:59.602Z,1.60
2018-12-10T18:03:03.012Z,1.67
2018-12-10T18:08:06.290Z,1.70
2018-12-10T18:13:09.692Z,1.60
2018-12-10T18:18:13.153Z,1.97
2018-12-10T18:23:16.516Z,1.80
2018-12-10T18:28:19.814Z,3.37
2018-12-10T18:33:23.072Z,1.83
2018-12-10T18:38:26.558Z,1.97
2018-12-10T18:43:29.848Z,1.57
2018-12-10T18:48:33.127Z,1.93
2018-12-10T18:53:36.631Z,2.37
2018-12-10T18:58:39.901Z,1.80
2018-12-10T19:03:43.172Z,1.87
2018-12-10T19:08:48.360Z,2.30
2018-12-10T19:13:51.653Z,2.07
2018-12-10T19:18:54.967Z,2.23
2018-12-10T19:23:58.245Z,2.27
2018-12-10T19:29:01.521Z,2.40
2018-12-10T19:34:04.731Z,2.73
2018-12-10T19:39:07.958Z,2.27
2018-12-10T19:44:11.223Z,2.73
2018-12-10T19:49:14.711Z,2.40
2018-12-10T19:54:17.992Z,2.80
2018-12-10T19:59:21.437Z,3.53
2018-12-10T20:04:24.725Z,2.77
2018-12-10T20:09:28.407Z,3.30
2018-12-10T20:14:31.782Z,3.23
2018-12-10T20:19:35.206Z,3.17
2018-12-10T20:24:38.546Z,3.40
2018-12-10T20:29:41.932Z,3.50
2018-12-10T20:34:45.476Z,3.03
2018-12-10T20:39:48.813Z,4.00
2018-12-10T20:44:52.475Z,3.67
2018-12-10T20:49:56.024Z,4.10
2018-12-10T20:54:59.713Z,4.03
2018-12-10T21:00:03.183Z,3.90
2018-12-10T21:05:06.689Z,3.97
2018-12-10T21:10:10.018Z,4.10
2018-12-10T21:15:13.380Z,4.13
2018-12-10T21:20:16.794Z,4.17
2018-12-10T21:25:26.770Z,4.27
2018-12-10T21:30:30.142Z,4.10
2018-12-10T21:35:33.521Z,4.10
2018-12-10T21:40:37.015Z,4.20
2018-12-10T21:45:40.351Z,4.10
2018-12-10T21:50:43.940Z,4.00
2018-12-10T21:55:47.215Z,4.20
2018-12-10T22:00:50.512Z,4.70
2018-12-10T22:05:54.127Z,4.47
2018-12-10T22:10:57.458Z,3.73
2018-12-10T22:16:00.842Z,3.50
2018-12-10T22:21:04.140Z,3.67
2018-12-10T22:26:07.483Z,4.67
2018-12-10T22:31:10.826Z,4.37
2018-12-10T22:36:14.176Z,4.00
2018-12-10T22:41:17.514Z,3.80
2018-12-10T22:46:20.802Z,4.27
2018-12-10T22:51:24.156Z,4.00
2018-12-10T22:56:27.542Z,3.63
2018-12-10T23:01:30.823Z,3.60
2018-12-10T23:06:34.233Z,3.90
2018-12-10T23:11:37.566Z,3.80
2018-12-10T23:16:41.114Z,3.67
2018-12-10T23:21:44.374Z,4.23
2018-12-10T23:26:48.099Z,3.77
2018-12-10T23:31:51.611Z,4.57
2018-12-10T23:36:54.926Z,3.40
2018-12-10T23:41:58.359Z,3.60
2018-12-10T23:47:01.583Z,4.87
2018-12-10T23:52:04.855Z,3.67
2018-12-10T23:57:08.094Z,3.87
